createdAt,value
2022-09-22T00:01:01.309Z,7.01
2022-09-22T00:03:31.196Z,7.23
2022-09-22T00:06:03.726Z,7.28
2022-09-22T00:08:33.172Z,7.05
2022-09-22T00:11:05.766Z,6.84
2022-09-22T00:13:34.261Z,6.70
2022-09-22T00:16:03.846Z,6.71
2022-09-22T00:18:31.369Z,6.78
2022-09-22T00:20:59.303Z,6.91
2022-09-22T00:23:29.025Z,6.97
2022-09-22T00:25:56.485Z,6.97
2022-09-22T00:28:25.816Z,7.13
2022-09-22T00:30:53.738Z,7.13
2022-09-22T00:33:22.575Z,6.76
2022-09-22T00:35:58.581Z,6.74
2022-09-22T00:38:26.079Z,6.85
2022-09-22T00:40:53.567Z,6.86
2022-09-22T00:43:23.451Z,6.87
2022-09-22T00:45:53.100Z,6.73
2022-09-22T00:48:24.326Z,6.65
2022-09-22T00:50:53.001Z,6.54
2022-09-22T00:53:24.096Z,6.59
2022-09-22T00:55:54.992Z,6.75
2022-09-22T00:58:27.028Z,6.85
2022-09-22T01:00:54.616Z,6.75
2022-09-22T01:03:29.563Z,6.77
2022-09-22T01:06:00.880Z,6.66
2022-09-22T01:08:29.820Z,6.47
2022-09-22T01:10:57.882Z,6.51
2022-09-22T01:13:28.620Z,6.59
2022-09-22T01:16:08.535Z,6.55
2022-09-22T01:18:48.858Z,6.43
2022-09-22T01:21:36.850Z,6.52
2022-09-22T01:24:34.960Z,6.36
2022-09-22T01:27:24.712Z,6.32
2022-09-22T01:30:17.829Z,6.31
2022-09-22T01:32:57.034Z,6.30
2022-09-22T01:35:28.556Z,6.36
2022-09-22T01:38:02.142Z,6.41
2022-09-22T01:40:32.790Z,6.52
2022-09-22T01:43:09.482Z,6.13
2022-09-22T01:45:40.049Z,6.19
2022-09-22T01:48:11.117Z,6.23
2022-09-22T01:50:41.388Z,6.22
2022-09-22T01:53:11.520Z,6.37
2022-09-22T01:55:40.485Z,6.28
2022-09-22T01:58:12.116Z,6.11
2022-09-22T02:00:44.252Z,5.92
2022-09-22T02:03:14.086Z,5.78
2022-09-22T02:05:44.784Z,5.78
2022-09-22T02:08:16.962Z,5.92
2022-09-22T02:10:46.637Z,5.92
2022-09-22T02:13:14.263Z,5.90
2022-09-22T02:16:02.553Z,5.81
2022-09-22T02:18:33.275Z,5.70
2022-09-22T02:21:01.297Z,5.71
2022-09-22T02:23:29.081Z,5.60
2022-09-22T02:25:56.797Z,5.77
2022-09-22T02:28:24.931Z,5.65
2022-09-22T02:31:18.505Z,5.70
2022-09-22T02:33:43.358Z,5.77
2022-09-22T02:36:33.751Z,5.69
2022-09-22T02:39:07.049Z,5.81
2022-09-22T02:41:41.713Z,5.82
2022-09-22T02:44:14.373Z,5.77
2022-09-22T02:46:46.336Z,5.70
2022-09-22T02:49:17.068Z,5.68
2022-09-22T02:51:46.518Z,5.67
2022-09-22T02:54:14.979Z,5.77
2022-09-22T02:56:42.702Z,5.70
2022-09-22T02:59:10.355Z,5.55
2022-09-22T03:01:38.341Z,5.59
2022-09-22T03:04:07.350Z,5.70
2022-09-22T03:06:34.815Z,5.81
2022-09-22T03:09:02.479Z,5.85
2022-09-22T03:11:30.034Z,5.92
2022-09-22T03:13:57.583Z,5.67
2022-09-22T03:16:25.065Z,5.73
2022-09-22T03:18:52.855Z,5.78
2022-09-22T03:21:21.691Z,5.74
2022-09-22T03:23:49.277Z,5.66
2022-09-22T03:26:16.838Z,5.78
2022-09-22T03:28:44.577Z,5.87
2022-09-22T03:31:12.528Z,5.88
2022-09-22T03:33:40.285Z,5.64
2022-09-22T03:36:07.937Z,5.42
2022-09-22T03:38:37.008Z,5.37
2022-09-22T03:41:04.594Z,5.43
2022-09-22T03:43:32.232Z,5.29
2022-09-22T03:46:01.222Z,5.34
2022-09-22T03:48:29.914Z,5.38
2022-09-22T03:50:57.519Z,5.35
2022-09-22T03:53:25.683Z,5.25
2022-09-22T03:55:54.519Z,5.27
2022-09-22T03:58:22.517Z,5.14
2022-09-22T04:00:50.246Z,5.07
2022-09-22T04:03:18.452Z,5.01
2022-09-22T04:05:50.428Z,5.02
2022-09-22T04:08:17.945Z,5.01
2022-09-22T04:10:45.854Z,5.06
2022-09-22T04:13:14.872Z,5.01
2022-09-22T04:15:42.684Z,4.97
2022-09-22T04:18:10.280Z,4.87
2022-09-22T04:20:38.479Z,4.89
2022-09-22T04:23:06.120Z,4.83
2022-09-22T04:25:33.891Z,4.96
2022-09-22T04:28:05.418Z,5.01
2022-09-22T04:30:35.194Z,4.88
2022-09-22T04:33:02.710Z,4.79
2022-09-22T04:35:30.493Z,4.96
2022-09-22T04:37:59.055Z,4.85
2022-09-22T04:40:26.874Z,4.96
2022-09-22T04:42:54.441Z,4.99
2022-09-22T04:45:21.921Z,4.93
2022-09-22T04:47:52.206Z,4.86
2022-09-22T04:50:21.200Z,4.69
2022-09-22T04:52:50.664Z,4.60
2022-09-22T04:55:18.335Z,4.70
2022-09-22T04:57:49.045Z,4.79
2022-09-22T05:00:20.143Z,4.66
2022-09-22T05:02:47.835Z,4.65
2022-09-22T05:05:17.480Z,4.68
2022-09-22T05:07:46.281Z,4.79
2022-09-22T05:10:14.929Z,4.64
2022-09-22T05:12:42.869Z,4.59
2022-09-22T05:15:12.170Z,4.63
2022-09-22T05:17:46.053Z,4.60
2022-09-22T05:20:13.848Z,4.64
2022-09-22T05:22:43.232Z,4.62
2022-09-22T05:25:12.293Z,4.71
2022-09-22T05:27:44.554Z,4.68
2022-09-22T05:30:12.915Z,4.68
2022-09-22T05:32:43.845Z,4.79
2022-09-22T05:35:11.681Z,4.86
2022-09-22T05:37:39.166Z,4.97
2022-09-22T05:40:09.019Z,4.94
2022-09-22T05:42:41.199Z,4.85
2022-09-22T05:45:26.142Z,4.86
2022-09-22T05:47:54.123Z,4.84
2022-09-22T05:50:23.694Z,4.84
2022-09-22T05:52:51.793Z,4.85
2022-09-22T05:55:19.964Z,4.91
2022-09-22T05:57:47.606Z,4.91
2022-09-22T06:00:15.653Z,5.03
2022-09-22T06:02:45.719Z,5.07
2022-09-22T06:05:16.631Z,5.16
2022-09-22T06:07:45.273Z,5.27
2022-09-22T06:10:12.990Z,5.35
2022-09-22T06:12:40.661Z,5.40
2022-09-22T06:15:08.635Z,5.46
2022-09-22T06:17:36.633Z,5.65
2022-09-22T06:20:06.738Z,5.84
2022-09-22T06:22:36.045Z,5.94
2022-09-22T06:25:03.949Z,6.11
2022-09-22T06:27:31.429Z,6.12
2022-09-22T06:29:58.887Z,6.21
2022-09-22T06:32:26.359Z,6.37
2022-09-22T06:34:53.850Z,6.61
2022-09-22T06:37:23.387Z,6.86
2022-09-22T06:39:50.897Z,7.13
2022-09-22T06:42:18.519Z,7.23
2022-09-22T06:44:46.396Z,7.32
2022-09-22T06:47:13.924Z,7.58
2022-09-22T06:49:42.133Z,7.77
2022-09-22T06:52:14.074Z,7.81
2022-09-22T06:54:42.873Z,7.90
2022-09-22T06:57:12.020Z,8.01
2022-09-22T06:59:40.691Z,8.12
2022-09-22T07:02:08.314Z,8.18
2022-09-22T07:04:35.981Z,8.30
2022-09-22T07:07:03.945Z,8.35
2022-09-22T07:09:31.908Z,8.38
2022-09-22T07:12:00.716Z,8.53
2022-09-22T07:14:28.158Z,8.58
2022-09-22T07:16:55.794Z,8.70
2022-09-22T07:19:23.244Z,8.81
2022-09-22T07:21:50.914Z,8.87
2022-09-22T07:24:18.406Z,8.95
2022-09-22T07:26:46.615Z,8.94
2022-09-22T07:29:16.751Z,9.02
2022-09-22T07:31:44.301Z,9.08
2022-09-22T07:34:12.729Z,9.11
2022-09-22T07:36:40.843Z,9.21
2022-09-22T07:39:10.908Z,9.29
2022-09-22T07:41:42.952Z,9.33
2022-09-22T07:44:28.754Z,9.44
2022-09-22T07:46:57.648Z,9.49
2022-09-22T07:49:25.223Z,9.57
2022-09-22T07:51:54.698Z,9.69
2022-09-22T07:54:22.717Z,9.79
2022-09-22T07:56:58.232Z,9.84
2022-09-22T07:59:26.782Z,9.97
2022-09-22T08:01:55.537Z,10.10
2022-09-22T08:04:26.319Z,10.10
2022-09-22T08:06:56.017Z,10.19
2022-09-22T08:09:24.590Z,10.29
2022-09-22T08:11:53.496Z,10.38
2022-09-22T08:14:22.209Z,10.38
2022-09-22T08:16:51.844Z,10.41
2022-09-22T08:19:21.149Z,10.48
2022-09-22T08:21:52.932Z,10.43
2022-09-22T08:24:22.981Z,10.60
2022-09-22T08:26:53.293Z,10.62
2022-09-22T08:29:21.489Z,10.80
2022-09-22T08:31:51.427Z,10.84
2022-09-22T08:34:20.114Z,10.94
2022-09-22T08:36:48.439Z,10.91
2022-09-22T08:39:18.727Z,10.94
2022-09-22T08:41:56.968Z,11.22
2022-09-22T08:44:26.417Z,11.27
2022-09-22T08:46:56.014Z,11.29
2022-09-22T08:49:44.503Z,11.21
2022-09-22T08:52:17.970Z,11.43
2022-09-22T08:54:47.061Z,11.33
2022-09-22T08:57:33.831Z,11.55
2022-09-22T09:00:05.717Z,11.71
2022-09-22T09:02:42.113Z,11.77
2022-09-22T09:05:51.514Z,11.77
2022-09-22T09:08:37.417Z,11.93
2022-09-22T09:11:15.851Z,11.94
2022-09-22T09:13:53.835Z,12.16
2022-09-22T09:16:35.675Z,12.21
2022-09-22T09:19:11.992Z,12.21
2022-09-22T09:21:43.690Z,12.41
2022-09-22T09:27:08.971Z,12.55
2022-09-22T09:29:43.084Z,12.75
2022-09-22T09:32:15.949Z,12.92
2022-09-22T09:34:53.695Z,12.94
2022-09-22T09:37:24.352Z,12.93
2022-09-22T09:39:52.362Z,12.93
2022-09-22T09:42:25.454Z,13.12
2022-09-22T09:44:54.406Z,13.10
2022-09-22T09:47:33.800Z,13.21
2022-09-22T09:50:01.272Z,13.33
2022-09-22T09:52:29.149Z,13.37
2022-09-22T09:54:56.720Z,13.54
2022-09-22T09:57:28.526Z,13.69
2022-09-22T10:00:32.483Z,13.60
2022-09-22T10:03:12.933Z,13.60
2022-09-22T10:05:40.869Z,13.66
2022-09-22T10:08:20.075Z,13.77
2022-09-22T10:10:48.626Z,13.88
2022-09-22T10:13:24.531Z,14.07
2022-09-22T10:16:24.504Z,14.20
2022-09-22T10:18:53.322Z,14.19
2022-09-22T10:21:22.128Z,14.20
2022-09-22T10:23:50.805Z,14.25
2022-09-22T10:26:21.617Z,14.47
2022-09-22T10:29:10.620Z,14.58
2022-09-22T10:31:38.879Z,14.63
2022-09-22T10:34:07.997Z,14.69
2022-09-22T10:36:37.302Z,14.68
2022-09-22T10:39:12.065Z,14.71
2022-09-22T10:41:40.117Z,14.73
2022-09-22T10:47:24.801Z,14.98
2022-09-22T10:50:09.849Z,14.93
2022-09-22T10:52:42.207Z,15.03
2022-09-22T10:55:18.183Z,15.12
2022-09-22T10:58:20.420Z,15.15
2022-09-22T11:00:49.299Z,15.33
2022-09-22T11:03:43.924Z,15.34
2022-09-22T11:06:43.817Z,15.38
2022-09-22T11:09:33.620Z,15.45
2022-09-22T11:12:19.149Z,15.52
2022-09-22T11:15:06.422Z,15.70
2022-09-22T11:17:53.482Z,15.80
2022-09-22T11:20:34.290Z,15.78
2022-09-22T11:23:18.218Z,15.83
2022-09-22T11:25:57.073Z,15.82
2022-09-22T11:28:34.917Z,15.89
2022-09-22T11:31:02.649Z,15.89
2022-09-22T11:33:58.145Z,15.91
2022-09-22T11:36:35.413Z,16.09
2022-09-22T11:39:11.012Z,16.18
2022-09-22T11:41:42.008Z,16.10
2022-09-22T11:44:19.492Z,16.12
2022-09-22T11:46:57.017Z,16.24
2022-09-22T11:49:36.374Z,16.20
2022-09-22T11:52:17.445Z,16.26
2022-09-22T11:55:04.044Z,16.39
2022-09-22T11:57:36.138Z,16.35
2022-09-22T12:00:07.045Z,16.44
2022-09-22T12:02:38.732Z,16.44
2022-09-22T12:05:11.903Z,16.62
2022-09-22T12:07:44.806Z,16.42
2022-09-22T12:10:17.266Z,16.53
2022-09-22T12:12:48.460Z,16.55
2022-09-22T12:15:22.332Z,16.56
2022-09-22T12:17:53.975Z,16.72
2022-09-22T12:20:34.226Z,16.74
2022-09-22T12:23:37.841Z,16.81
2022-09-22T12:26:08.062Z,16.72
2022-09-22T12:28:39.773Z,16.80
2022-09-22T12:31:12.635Z,16.79
2022-09-22T12:33:47.422Z,16.97
2022-09-22T12:36:17.671Z,17.04
2022-09-22T12:38:45.575Z,17.16
2022-09-22T12:41:17.699Z,17.16
2022-09-22T12:43:45.953Z,17.11
2022-09-22T12:46:25.332Z,17.14
2022-09-22T12:48:53.025Z,17.14
2022-09-22T12:51:33.135Z,17.19
2022-09-22T12:54:43.412Z,17.14
2022-09-22T12:57:30.369Z,17.20
2022-09-22T13:00:16.084Z,17.18
2022-09-22T13:02:46.025Z,17.30
2022-09-22T13:05:46.805Z,17.36
2022-09-22T13:08:23.083Z,17.28
2022-09-22T13:10:58.587Z,17.33
2022-09-22T13:13:50.634Z,17.48
2022-09-22T13:16:35.786Z,17.55
2022-09-22T13:19:04.701Z,17.52
2022-09-22T13:21:34.397Z,17.63
2022-09-22T13:24:05.146Z,17.65
2022-09-22T13:26:34.848Z,17.74
2022-09-22T13:29:11.788Z,17.70
2022-09-22T13:31:41.732Z,17.68
2022-09-22T13:34:34.765Z,17.75
2022-09-22T13:37:05.267Z,17.81
2022-09-22T13:39:36.366Z,17.82
2022-09-22T13:42:06.343Z,17.83
2022-09-22T13:44:35.611Z,17.82
2022-09-22T13:47:06.893Z,17.79
2022-09-22T13:49:38.436Z,17.88
2022-09-22T13:52:08.469Z,17.87
2022-09-22T13:54:38.466Z,17.77
2022-09-22T13:57:07.518Z,17.78
2022-09-22T13:59:41.317Z,17.82
2022-09-22T14:02:11.056Z,17.89
2022-09-22T14:04:38.913Z,17.80
2022-09-22T14:07:11.052Z,17.76
2022-09-22T14:09:40.317Z,17.72
2022-09-22T14:12:11.807Z,17.68
2022-09-22T14:14:40.347Z,17.66
2022-09-22T14:17:14.460Z,17.81
2022-09-22T14:19:45.459Z,17.68
2022-09-22T14:22:18.239Z,17.47
2022-09-22T14:24:50.094Z,17.28
2022-09-22T14:27:21.474Z,17.13
2022-09-22T14:29:51.091Z,17.04
2022-09-22T14:32:23.801Z,17.06
2022-09-22T14:34:53.204Z,17.16
2022-09-22T14:37:25.021Z,17.14
2022-09-22T14:39:55.140Z,17.13
2022-09-22T14:42:28.275Z,17.09
2022-09-22T14:45:18.434Z,17.04
2022-09-22T14:47:46.258Z,16.99
2022-09-22T14:50:20.471Z,16.97
2022-09-22T14:52:54.568Z,16.98
2022-09-22T14:55:30.220Z,17.25
2022-09-22T14:57:58.420Z,17.29
2022-09-22T15:00:46.645Z,17.26
2022-09-22T15:03:21.672Z,17.36
2022-09-22T15:05:50.255Z,17.33
2022-09-22T15:08:19.646Z,17.65
2022-09-22T15:10:56.652Z,17.46
2022-09-22T15:13:30.691Z,17.49
2022-09-22T15:15:58.790Z,17.56
2022-09-22T15:18:30.608Z,17.58
2022-09-22T15:21:00.120Z,17.59
2022-09-22T15:23:31.613Z,17.53
2022-09-22T15:26:04.075Z,17.44
2022-09-22T15:28:32.636Z,17.37
2022-09-22T15:31:00.384Z,17.31
2022-09-22T15:33:30.603Z,17.36
2022-09-22T15:36:03.371Z,17.18
2022-09-22T15:38:32.486Z,17.17
2022-09-22T15:41:02.006Z,17.13
2022-09-22T15:43:31.048Z,17.12
2022-09-22T15:46:01.725Z,17.15
2022-09-22T15:48:34.291Z,17.15
2022-09-22T15:51:04.626Z,17.13
2022-09-22T15:53:32.930Z,17.09
2022-09-22T15:56:04.377Z,17.14
2022-09-22T15:58:36.791Z,17.05
2022-09-22T16:01:05.559Z,17.08
2022-09-22T16:03:38.994Z,17.10
2022-09-22T16:06:10.839Z,16.93
2022-09-22T16:08:42.183Z,16.88
2022-09-22T16:11:14.137Z,16.77
2022-09-22T16:13:42.252Z,16.68
2022-09-22T16:16:10.632Z,16.65
2022-09-22T16:18:42.003Z,16.63
2022-09-22T16:21:18.786Z,16.54
2022-09-22T16:23:46.393Z,16.48
2022-09-22T16:26:16.130Z,16.46
2022-09-22T16:28:43.868Z,16.45
2022-09-22T16:31:11.554Z,16.42
2022-09-22T16:33:39.196Z,16.46
2022-09-22T16:36:07.116Z,16.36
2022-09-22T16:38:35.070Z,16.34
2022-09-22T16:41:04.503Z,16.26
2022-09-22T16:43:33.781Z,16.22
2022-09-22T16:46:19.221Z,16.19
2022-09-22T16:48:46.924Z,16.14
2022-09-22T16:51:19.210Z,16.09
2022-09-22T16:53:55.190Z,16.05
2022-09-22T16:56:27.951Z,15.93
2022-09-22T16:58:57.409Z,15.84
2022-09-22T17:01:26.185Z,15.72
2022-09-22T17:03:54.046Z,15.64
2022-09-22T17:06:25.152Z,15.57
2022-09-22T17:08:53.686Z,15.50
2022-09-22T17:11:23.390Z,15.45
2022-09-22T17:13:51.321Z,15.34
2022-09-22T17:16:22.892Z,15.25
2022-09-22T17:18:52.065Z,15.11
2022-09-22T17:21:21.932Z,15.01
2022-09-22T17:23:50.510Z,14.90
2022-09-22T17:26:19.062Z,14.75
2022-09-22T17:28:47.012Z,14.64
2022-09-22T17:31:14.810Z,14.58
2022-09-22T17:33:51.936Z,14.42
2022-09-22T17:36:22.450Z,14.31
2022-09-22T17:38:51.378Z,14.20
2022-09-22T17:41:20.588Z,14.08
2022-09-22T17:43:53.432Z,13.93
2022-09-22T17:46:22.982Z,13.80
2022-09-22T17:49:10.691Z,13.72
2022-09-22T17:51:57.304Z,13.61
2022-09-22T17:54:43.951Z,13.48
2022-09-22T17:57:12.746Z,13.36
2022-09-22T17:59:41.392Z,13.31
2022-09-22T18:02:11.028Z,13.26
2022-09-22T18:04:40.254Z,13.18
2022-09-22T18:07:09.638Z,13.04
2022-09-22T18:09:38.866Z,12.94
2022-09-22T18:12:07.847Z,12.86
2022-09-22T18:14:35.581Z,12.75
2022-09-22T18:17:07.008Z,12.65
2022-09-22T18:19:36.672Z,12.57
2022-09-22T18:22:06.804Z,12.55
2022-09-22T18:24:34.927Z,12.65
2022-09-22T18:27:03.926Z,12.60
2022-09-22T18:29:31.964Z,12.48
2022-09-22T18:31:59.806Z,12.37
2022-09-22T18:34:31.760Z,12.23
2022-09-22T18:36:59.723Z,12.06
2022-09-22T18:39:29.029Z,12.01
2022-09-22T18:41:57.442Z,11.97
2022-09-22T18:44:28.106Z,11.88
2022-09-22T18:47:00.640Z,11.70
2022-09-22T18:49:31.859Z,11.59
2022-09-22T18:52:00.296Z,11.61
2022-09-22T18:54:29.974Z,11.53
2022-09-22T18:56:57.682Z,11.30
2022-09-22T18:59:27.182Z,11.36
2022-09-22T19:01:55.136Z,11.39
2022-09-22T19:04:24.046Z,11.28
2022-09-22T19:07:10.959Z,11.08
2022-09-22T19:09:39.969Z,10.99
2022-09-22T19:12:09.227Z,11.00
2022-09-22T19:14:39.087Z,11.07
2022-09-22T19:17:07.205Z,11.03
2022-09-22T19:19:36.970Z,10.93
2022-09-22T19:22:08.953Z,10.88
2022-09-22T19:24:36.732Z,10.71
2022-09-22T19:27:06.816Z,10.76
2022-09-22T19:29:34.666Z,10.74
2022-09-22T19:32:03.308Z,10.78
2022-09-22T19:34:31.329Z,10.80
2022-09-22T19:36:59.217Z,10.73
2022-09-22T19:39:27.240Z,10.67
2022-09-22T19:41:55.853Z,10.61
2022-09-22T19:44:26.951Z,10.43
2022-09-22T19:46:54.624Z,10.45
2022-09-22T19:49:22.505Z,10.37
2022-09-22T19:51:50.128Z,10.44
2022-09-22T19:54:20.004Z,10.34
2022-09-22T19:56:48.406Z,10.29
2022-09-22T19:59:19.745Z,10.10
2022-09-22T20:01:49.000Z,10.13
2022-09-22T20:04:18.422Z,10.07
2022-09-22T20:06:46.319Z,10.10
2022-09-22T20:09:13.983Z,10.00
2022-09-22T20:11:43.436Z,9.98
2022-09-22T20:14:22.148Z,10.01
2022-09-22T20:16:52.720Z,10.00
2022-09-22T20:19:21.460Z,9.89
2022-09-22T20:21:49.647Z,9.89
2022-09-22T20:24:19.040Z,9.75
2022-09-22T20:26:47.057Z,9.74
2022-09-22T20:29:15.510Z,9.74
2022-09-22T20:31:43.640Z,9.61
2022-09-22T20:34:14.282Z,9.66
2022-09-22T20:36:43.107Z,9.68
2022-09-22T20:39:13.186Z,9.63
2022-09-22T20:41:41.710Z,9.52
2022-09-22T20:44:13.924Z,9.42
2022-09-22T20:46:42.159Z,9.52
2022-09-22T20:49:14.600Z,9.46
2022-09-22T20:51:42.587Z,9.46
2022-09-22T20:54:10.517Z,9.55
2022-09-22T20:56:42.473Z,9.29
2022-09-22T20:59:14.048Z,9.26
2022-09-22T21:01:41.692Z,9.44
2022-09-22T21:04:12.903Z,9.34
2022-09-22T21:06:44.449Z,9.41
2022-09-22T21:09:29.681Z,9.58
2022-09-22T21:11:57.316Z,9.58
2022-09-22T21:14:26.898Z,9.45
2022-09-22T21:16:54.501Z,9.23
2022-09-22T21:19:24.121Z,9.32
2022-09-22T21:21:53.206Z,9.19
2022-09-22T21:24:20.859Z,9.23
2022-09-22T21:26:49.655Z,9.23
2022-09-22T21:29:17.339Z,9.37
2022-09-22T21:31:46.068Z,9.39
2022-09-22T21:34:13.773Z,9.21
2022-09-22T21:36:41.298Z,9.17
2022-09-22T21:39:12.567Z,9.11
2022-09-22T21:41:41.333Z,8.85
2022-09-22T21:44:09.150Z,8.86
2022-09-22T21:46:41.694Z,8.75
2022-09-22T21:49:13.012Z,8.65
2022-09-22T21:51:44.265Z,8.58
2022-09-22T21:54:15.110Z,8.52
2022-09-22T21:56:43.013Z,8.38
2022-09-22T21:59:12.168Z,8.54
2022-09-22T22:01:41.911Z,8.59
2022-09-22T22:04:13.427Z,8.64
2022-09-22T22:06:42.857Z,8.46
2022-09-22T22:09:15.557Z,8.33
2022-09-22T22:11:45.836Z,8.31
2022-09-22T22:14:15.048Z,8.18
2022-09-22T22:16:44.233Z,8.24
2022-09-22T22:19:13.382Z,8.24
2022-09-22T22:21:42.819Z,8.36
2022-09-22T22:24:28.510Z,8.31
2022-09-22T22:26:58.440Z,8.31
2022-09-22T22:29:27.348Z,8.28
2022-09-22T22:31:54.898Z,8.38
2022-09-22T22:34:25.459Z,8.37
2022-09-22T22:36:53.685Z,8.17
2022-09-22T22:39:22.618Z,8.07
2022-09-22T22:41:50.091Z,8.01
2022-09-22T22:44:17.927Z,8.01
2022-09-22T22:46:45.906Z,7.89
2022-09-22T22:49:13.742Z,7.79
2022-09-22T22:51:43.036Z,7.88
2022-09-22T22:54:11.636Z,7.82
2022-09-22T22:56:43.778Z,7.83
2022-09-22T22:59:13.288Z,7.91
2022-09-22T23:01:43.899Z,8.12
2022-09-22T23:04:14.980Z,7.99
2022-09-22T23:06:44.511Z,8.02
2022-09-22T23:09:13.968Z,7.98
2022-09-22T23:11:43.998Z,8.00
2022-09-22T23:14:12.747Z,7.96
2022-09-22T23:16:43.193Z,7.90
2022-09-22T23:19:13.641Z,7.87
2022-09-22T23:21:41.202Z,7.96
2022-09-22T23:24:09.450Z,8.02
2022-09-22T23:26:37.522Z,7.97
2022-09-22T23:29:06.748Z,8.11
2022-09-22T23:31:34.367Z,8.16
2022-09-22T23:34:01.905Z,8.09
2022-09-22T23:36:30.364Z,8.69
2022-09-22T23:39:01.852Z,8.83
2022-09-22T23:41:29.558Z,8.87
2022-09-22T23:43:57.075Z,8.57
2022-09-22T23:46:25.986Z,8.52
2022-09-22T23:48:55.283Z,8.21
2022-09-22T23:51:22.792Z,7.98
2022-09-22T23:53:50.481Z,7.73
2022-09-22T23:56:18.047Z,7.73
2022-09-22T23:58:46.445Z,7.62
